createdAt,value
2017-10-03T00:00:39.056Z,0
2017-10-03T00:01:47.756Z,0
2017-10-03T00:02:56.768Z,0
2017-10-03T00:04:06.103Z,0
2017-10-03T00:05:15.121Z,0
2017-10-03T00:06:24.451Z,0
2017-10-03T00:07:33.786Z,0
2017-10-03T00:08:42.799Z,0
2017-10-03T00:09:51.491Z,0
2017-10-03T00:11:00.186Z,0
2017-10-03T00:12:09.837Z,0
2017-10-03T00:13:18.535Z,0
2017-10-03T00:14:27.232Z,0
2017-10-03T00:15:36.572Z,0
2017-10-03T00:16:45.906Z,0
2017-10-03T00:17:54.920Z,0
2017-10-03T00:19:03.617Z,0
2017-10-03T00:20:12.628Z,0
2017-10-03T00:21:21.954Z,0
2017-10-03T00:22:31.283Z,0
2017-10-03T00:23:41.252Z,0
2017-10-03T00:24:50.263Z,0
2017-10-03T00:25:59.279Z,0
2017-10-03T00:27:08.297Z,0
2017-10-03T00:28:17.318Z,0
2017-10-03T00:29:26.020Z,0
2017-10-03T00:30:35.037Z,0
2017-10-03T00:31:44.371Z,0
2017-10-03T00:32:53.070Z,0
2017-10-03T00:34:02.400Z,0
2017-10-03T00:35:11.416Z,0
2017-10-03T00:36:20.749Z,0
2017-10-03T00:37:30.087Z,0
2017-10-03T00:38:39.097Z,0
2017-10-03T00:39:48.430Z,0
2017-10-03T00:40:57.762Z,0
2017-10-03T00:42:06.772Z,0
2017-10-03T00:43:15.790Z,0
2017-10-03T00:44:25.124Z,0
2017-10-03T00:45:33.820Z,0
2017-10-03T00:46:42.829Z,0
2017-10-03T00:47:52.158Z,0
2017-10-03T00:49:01.171Z,0
2017-10-03T00:50:09.868Z,0
2017-10-03T00:51:18.880Z,0
2017-10-03T00:52:27.890Z,0
2017-10-03T00:53:36.586Z,0
2017-10-03T00:54:45.286Z,0
2017-10-03T00:55:54.299Z,0
2017-10-03T00:57:03.958Z,0
2017-10-03T00:58:12.974Z,0
2017-10-03T00:59:21.989Z,0
2017-10-03T01:00:30.996Z,0
2017-10-03T01:01:40.649Z,0
2017-10-03T01:02:50.629Z,0
2017-10-03T01:03:59.958Z,0
2017-10-03T01:05:09.293Z,0
2017-10-03T01:06:18.626Z,0
2017-10-03T01:07:27.648Z,0
2017-10-03T01:08:36.668Z,0
2017-10-03T01:09:45.681Z,0
2017-10-03T01:10:55.336Z,0
2017-10-03T01:12:05.306Z,0
2017-10-03T01:13:14.957Z,0
2017-10-03T01:14:23.966Z,0
2017-10-03T01:15:33.617Z,0
2017-10-03T01:16:42.951Z,0
2017-10-03T01:17:51.649Z,0
2017-10-03T01:19:00.350Z,0
2017-10-03T01:20:09.372Z,0
2017-10-03T01:21:18.065Z,0
2017-10-03T01:22:27.083Z,0
2017-10-03T01:23:36.427Z,0
2017-10-03T01:24:45.124Z,0
2017-10-03T01:25:53.822Z,0
2017-10-03T01:27:03.481Z,0
2017-10-03T01:28:12.172Z,0
2017-10-03T01:29:22.143Z,0
2017-10-03T01:30:30.840Z,0
2017-10-03T01:31:39.538Z,0
2017-10-03T01:32:48.553Z,0
2017-10-03T01:33:57.246Z,0
2017-10-03T01:35:06.271Z,0
2017-10-03T01:36:15.602Z,0
2017-10-03T01:37:24.616Z,0
2017-10-03T01:38:33.632Z,0
2017-10-03T01:39:42.328Z,0
2017-10-03T01:40:51.337Z,0
2017-10-03T01:42:00.668Z,0
2017-10-03T01:43:10.321Z,0
2017-10-03T01:44:19.017Z,0
2017-10-03T01:45:28.033Z,0
2017-10-03T01:46:37.683Z,0
2017-10-03T01:47:46.697Z,0
2017-10-03T01:48:56.343Z,0
2017-10-03T01:50:05.995Z,0
2017-10-03T01:51:15.011Z,0
2017-10-03T01:52:24.025Z,0
2017-10-03T01:53:33.362Z,0
2017-10-03T01:54:42.375Z,0
2017-10-03T01:55:51.709Z,0
2017-10-03T01:57:00.727Z,0
2017-10-03T01:58:10.378Z,0
2017-10-03T01:59:20.352Z,0
2017-10-03T02:00:29.364Z,0
2017-10-03T02:01:39.019Z,0
2017-10-03T02:02:47.710Z,0
2017-10-03T02:03:56.721Z,0
2017-10-03T02:05:06.052Z,0
2017-10-03T02:06:14.748Z,0
2017-10-03T02:07:24.089Z,0
2017-10-03T02:08:33.431Z,0
2017-10-03T02:09:43.428Z,0
2017-10-03T02:10:53.086Z,0
2017-10-03T02:12:02.416Z,0
2017-10-03T02:13:11.430Z,0
2017-10-03T02:14:20.448Z,0
2017-10-03T02:15:29.141Z,0
2017-10-03T02:16:38.477Z,0
2017-10-03T02:17:47.815Z,0
2017-10-03T02:18:56.511Z,0
2017-10-03T02:20:05.844Z,0
2017-10-03T02:21:14.865Z,0
2017-10-03T02:22:24.198Z,0
2017-10-03T02:23:33.219Z,0
2017-10-03T02:24:42.230Z,0
2017-10-03T02:25:51.245Z,0
2017-10-03T02:26:59.942Z,0
2017-10-03T02:28:09.597Z,0
2017-10-03T02:29:18.612Z,0
2017-10-03T02:30:27.624Z,0
2017-10-03T02:31:36.635Z,0
2017-10-03T02:32:45.335Z,0
2017-10-03T02:33:54.351Z,0
2017-10-03T02:35:03.364Z,0
2017-10-03T02:36:12.383Z,0
2017-10-03T02:37:21.723Z,0
2017-10-03T02:38:31.056Z,0
2017-10-03T02:39:40.387Z,0
2017-10-03T02:40:49.406Z,0
2017-10-03T02:41:58.423Z,0
2017-10-03T02:43:07.438Z,0
2017-10-03T02:44:17.091Z,0
2017-10-03T02:45:26.426Z,0
2017-10-03T02:46:36.084Z,0
2017-10-03T02:47:45.740Z,0
2017-10-03T02:48:55.069Z,0
2017-10-03T02:50:04.086Z,0
2017-10-03T02:51:13.426Z,0
2017-10-03T02:52:22.754Z,0
2017-10-03T02:53:31.448Z,0
2017-10-03T02:54:40.789Z,0
2017-10-03T02:55:50.121Z,0
2017-10-03T02:56:59.454Z,0
2017-10-03T02:58:08.469Z,0
2017-10-03T02:59:17.810Z,0
2017-10-03T03:00:26.503Z,0
2017-10-03T03:01:35.518Z,0
2017-10-03T03:02:44.858Z,0
2017-10-03T03:03:54.191Z,0
2017-10-03T03:05:03.534Z,0
2017-10-03T03:06:12.867Z,0
2017-10-03T03:07:22.525Z,0
2017-10-03T03:08:31.860Z,0
2017-10-03T03:09:40.555Z,0
2017-10-03T03:10:49.895Z,0
2017-10-03T03:11:58.588Z,0
2017-10-03T03:13:08.241Z,0
2017-10-03T03:14:17.253Z,0
2017-10-03T03:15:26.266Z,0
2017-10-03T03:16:35.280Z,0
2017-10-03T03:17:43.998Z,0
2017-10-03T03:18:53.310Z,0
2017-10-03T03:20:02.648Z,0
2017-10-03T03:21:11.341Z,0
2017-10-03T03:22:20.671Z,0
2017-10-03T03:23:29.365Z,0
2017-10-03T03:24:38.385Z,0
2017-10-03T03:25:47.718Z,0
2017-10-03T03:26:56.733Z,0
2017-10-03T03:28:05.428Z,0
2017-10-03T03:29:15.099Z,0
2017-10-03T03:30:23.794Z,0
2017-10-03T03:31:32.808Z,0
2017-10-03T03:32:42.463Z,0
2017-10-03T03:33:51.797Z,0
2017-10-03T03:35:00.806Z,0
2017-10-03T03:36:09.822Z,0
2017-10-03T03:37:19.158Z,0
2017-10-03T03:38:28.171Z,0
2017-10-03T03:39:37.193Z,0
2017-10-03T03:40:46.529Z,0
2017-10-03T03:41:55.857Z,0
2017-10-03T03:43:05.193Z,0
2017-10-03T03:44:14.526Z,0
2017-10-03T03:45:23.538Z,0
2017-10-03T03:46:32.231Z,0
2017-10-03T03:47:41.251Z,0
2017-10-03T03:48:50.267Z,0
2017-10-03T03:49:59.279Z,0
2017-10-03T03:51:08.296Z,0
2017-10-03T03:52:17.626Z,0
2017-10-03T03:53:26.959Z,0
2017-10-03T03:54:36.293Z,0
2017-10-03T03:55:44.988Z,0
2017-10-03T03:56:53.689Z,0
2017-10-03T03:58:02.704Z,0
2017-10-03T03:59:12.038Z,0
2017-10-03T04:00:21.052Z,0
2017-10-03T04:01:30.069Z,0
2017-10-03T04:02:39.405Z,0
2017-10-03T04:03:48.419Z,0
2017-10-03T04:04:57.755Z,0
2017-10-03T04:06:06.448Z,0
2017-10-03T04:07:15.140Z,0
2017-10-03T04:08:24.178Z,0
2017-10-03T04:09:33.516Z,0
2017-10-03T04:10:43.166Z,0
2017-10-03T04:11:52.503Z,0
2017-10-03T04:13:01.512Z,0
2017-10-03T04:14:10.851Z,0
2017-10-03T04:15:20.177Z,0
2017-10-03T04:16:28.872Z,0
2017-10-03T04:17:37.564Z,0
2017-10-03T04:18:46.901Z,0
2017-10-03T04:19:55.919Z,0
2017-10-03T04:21:05.578Z,0
2017-10-03T04:22:14.591Z,0
2017-10-03T04:23:23.604Z,0
2017-10-03T04:24:32.950Z,0
2017-10-03T04:25:42.281Z,0
2017-10-03T04:26:50.977Z,0
2017-10-03T04:27:59.989Z,0
2017-10-03T04:29:09.001Z,0
2017-10-03T04:30:18.334Z,0
2017-10-03T04:31:27.666Z,0
2017-10-03T04:32:36.999Z,0
2017-10-03T04:33:46.013Z,0
2017-10-03T04:34:55.661Z,0
2017-10-03T04:36:04.357Z,0
2017-10-03T04:37:14.011Z,0
2017-10-03T04:38:23.028Z,0
2017-10-03T04:39:31.725Z,0
2017-10-03T04:40:40.738Z,0
2017-10-03T04:41:49.753Z,0
2017-10-03T04:42:58.446Z,0
2017-10-03T04:44:07.810Z,0
2017-10-03T04:45:17.146Z,0
2017-10-03T04:46:26.481Z,0
2017-10-03T04:47:35.498Z,0
2017-10-03T04:48:45.148Z,0
2017-10-03T04:49:54.167Z,0
2017-10-03T04:51:03.178Z,0
2017-10-03T04:52:12.194Z,0
2017-10-03T04:53:21.841Z,0
2017-10-03T04:54:30.539Z,0
2017-10-03T04:55:39.234Z,0
2017-10-03T04:56:48.243Z,0
2017-10-03T04:57:57.571Z,0
2017-10-03T04:59:06.585Z,0
2017-10-03T05:00:15.921Z,0
2017-10-03T05:01:24.615Z,0
2017-10-03T05:02:33.626Z,0
2017-10-03T05:03:42.330Z,0
2017-10-03T05:04:51.344Z,0
2017-10-03T05:06:00.356Z,0
2017-10-03T05:07:09.369Z,0
2017-10-03T05:08:18.385Z,0
2017-10-03T05:09:27.082Z,0
2017-10-03T05:10:36.735Z,0
2017-10-03T05:11:46.070Z,0
2017-10-03T05:12:55.081Z,0
2017-10-03T05:14:04.100Z,0
2017-10-03T05:15:12.795Z,0
2017-10-03T05:16:21.806Z,0
2017-10-03T05:17:31.143Z,0
2017-10-03T05:18:40.156Z,0
2017-10-03T05:19:48.846Z,0
2017-10-03T05:20:57.860Z,0
2017-10-03T05:22:06.874Z,0
2017-10-03T05:23:15.569Z,0
2017-10-03T05:24:24.585Z,0
2017-10-03T05:25:33.598Z,0
2017-10-03T05:26:42.636Z,0
2017-10-03T05:27:51.977Z,0
2017-10-03T05:29:01.315Z,0
2017-10-03T05:30:10.332Z,0
2017-10-03T05:31:19.668Z,0
2017-10-03T05:32:28.685Z,0
2017-10-03T05:33:38.339Z,0
2017-10-03T05:34:47.669Z,0
2017-10-03T05:35:56.684Z,0
2017-10-03T05:37:06.660Z,0
2017-10-03T05:38:15.674Z,0
2017-10-03T05:39:25.005Z,0
2017-10-03T05:40:34.022Z,0
2017-10-03T05:41:43.349Z,0
2017-10-03T05:42:52.680Z,0
2017-10-03T05:44:01.376Z,0
2017-10-03T05:45:10.709Z,0
2017-10-03T05:46:20.042Z,0
2017-10-03T05:47:29.694Z,0
2017-10-03T05:48:38.710Z,0
2017-10-03T05:49:48.047Z,0
2017-10-03T05:50:56.741Z,0
2017-10-03T05:52:06.070Z,0
2017-10-03T05:53:15.084Z,0
2017-10-03T05:54:24.098Z,0
2017-10-03T05:55:32.797Z,0
2017-10-03T05:56:42.448Z,0
2017-10-03T05:57:51.144Z,0
2017-10-03T05:59:00.160Z,0
2017-10-03T06:00:09.175Z,0
2017-10-03T06:01:18.506Z,0
2017-10-03T06:02:27.841Z,0
2017-10-03T06:03:36.538Z,0
2017-10-03T06:04:45.886Z,0
2017-10-03T06:05:55.532Z,0
2017-10-03T06:07:04.548Z,0
2017-10-03T06:08:13.559Z,0
2017-10-03T06:09:22.253Z,0
2017-10-03T06:10:31.907Z,0
2017-10-03T06:11:40.920Z,0
2017-10-03T06:12:49.616Z,0
2017-10-03T06:13:59.271Z,0
2017-10-03T06:15:08.285Z,0
2017-10-03T06:16:16.977Z,0
2017-10-03T06:17:26.628Z,0
2017-10-03T06:18:35.325Z,0
2017-10-03T06:19:44.657Z,0
2017-10-03T06:20:53.676Z,0
2017-10-03T06:22:02.370Z,0
2017-10-03T06:23:11.385Z,0
2017-10-03T06:24:20.394Z,0
2017-10-03T06:25:29.406Z,0
2017-10-03T06:26:38.424Z,0
2017-10-03T06:27:47.444Z,5
2017-10-03T06:28:56.141Z,5
2017-10-03T06:30:04.834Z,5
2017-10-03T06:31:14.819Z,0
2017-10-03T06:32:24.149Z,0
2017-10-03T06:33:33.164Z,0
2017-10-03T06:34:41.861Z,5
2017-10-03T06:35:51.193Z,5
2017-10-03T06:36:59.887Z,5
2017-10-03T06:38:09.216Z,5
2017-10-03T06:39:18.229Z,5
2017-10-03T06:40:26.927Z,5
2017-10-03T06:41:36.281Z,5
2017-10-03T06:42:44.955Z,10
2017-10-03T06:43:54.289Z,10
2017-10-03T06:45:03.943Z,5
2017-10-03T06:46:13.273Z,5
2017-10-03T06:47:21.967Z,10
2017-10-03T06:48:31.618Z,10
2017-10-03T06:49:40.631Z,5
2017-10-03T06:50:50.285Z,5
2017-10-03T06:51:59.939Z,5
2017-10-03T06:53:08.958Z,10
2017-10-03T06:54:18.286Z,10
2017-10-03T06:55:27.298Z,10
2017-10-03T06:56:36.634Z,5
2017-10-03T06:57:45.965Z,15
2017-10-03T06:58:54.981Z,10
2017-10-03T07:00:04.315Z,10
2017-10-03T07:01:13.334Z,10
2017-10-03T07:02:22.353Z,5
2017-10-03T07:03:31.684Z,10
2017-10-03T07:04:41.651Z,10
2017-10-03T07:05:50.666Z,5
2017-10-03T07:06:59.998Z,5
2017-10-03T07:08:09.008Z,5
2017-10-03T07:09:18.670Z,0
2017-10-03T07:10:27.686Z,5
2017-10-03T07:11:37.340Z,10
2017-10-03T07:12:46.675Z,5
2017-10-03T07:13:56.651Z,10
2017-10-03T07:15:05.663Z,15
2017-10-03T07:16:14.677Z,20
2017-10-03T07:17:24.331Z,10
2017-10-03T07:18:33.346Z,10
2017-10-03T07:19:42.360Z,10
2017-10-03T07:20:52.016Z,10
2017-10-03T07:22:01.053Z,5
2017-10-03T07:23:09.728Z,5
2017-10-03T07:24:18.740Z,10
2017-10-03T07:25:27.435Z,10
2017-10-03T07:26:37.090Z,20
2017-10-03T07:27:46.104Z,25
2017-10-03T07:28:55.117Z,10
2017-10-03T07:30:04.458Z,5
2017-10-03T07:31:13.165Z,5
2017-10-03T07:32:21.857Z,15
2017-10-03T07:33:30.872Z,5
2017-10-03T07:34:39.887Z,10
2017-10-03T07:35:48.906Z,10
2017-10-03T07:36:57.919Z,5
2017-10-03T07:38:07.253Z,5
2017-10-03T07:39:15.948Z,5
2017-10-03T07:40:24.649Z,5
2017-10-03T07:41:33.666Z,5
2017-10-03T07:42:42.360Z,0
2017-10-03T07:43:51.058Z,0
2017-10-03T07:45:00.071Z,0
2017-10-03T07:46:09.087Z,0
2017-10-03T07:47:18.098Z,5
2017-10-03T07:48:27.121Z,0
2017-10-03T07:49:36.130Z,0
2017-10-03T07:50:45.464Z,5
2017-10-03T07:51:54.481Z,10
2017-10-03T07:53:03.818Z,5
2017-10-03T07:54:12.830Z,15
2017-10-03T07:55:21.842Z,25
2017-10-03T07:56:31.491Z,20
2017-10-03T07:57:40.189Z,30
2017-10-03T07:58:49.531Z,25
2017-10-03T07:59:59.186Z,10
2017-10-03T08:01:07.878Z,15
2017-10-03T08:02:16.570Z,10
2017-10-03T08:03:25.905Z,15
2017-10-03T08:04:35.247Z,30
2017-10-03T08:05:43.941Z,25
2017-10-03T08:06:53.596Z,10
2017-10-03T08:08:02.933Z,10
2017-10-03T08:09:11.948Z,5
2017-10-03T08:10:21.593Z,10
2017-10-03T08:11:30.936Z,20
2017-10-03T08:12:39.633Z,65
2017-10-03T08:13:49.291Z,60
2017-10-03T08:14:58.305Z,40
2017-10-03T08:16:07.003Z,30
2017-10-03T08:17:16.015Z,15
2017-10-03T08:18:25.025Z,10
2017-10-03T08:19:33.717Z,10
2017-10-03T08:20:42.733Z,10
2017-10-03T08:21:52.064Z,5
2017-10-03T08:23:00.759Z,10
2017-10-03T08:24:09.785Z,10
2017-10-03T08:25:19.437Z,5
2017-10-03T08:26:28.773Z,10
2017-10-03T08:27:37.786Z,10
2017-10-03T08:28:46.487Z,5
2017-10-03T08:29:56.462Z,10
2017-10-03T08:31:06.123Z,10
2017-10-03T08:32:14.823Z,15
2017-10-03T08:33:23.838Z,20
2017-10-03T08:34:32.859Z,15
2017-10-03T08:35:42.190Z,15
2017-10-03T08:36:51.212Z,20
2017-10-03T08:38:00.226Z,15
2017-10-03T08:39:08.923Z,5
2017-10-03T08:40:18.265Z,5
2017-10-03T08:41:27.599Z,5
2017-10-03T08:42:36.614Z,10
2017-10-03T08:43:45.956Z,15
2017-10-03T08:44:54.971Z,30
2017-10-03T08:46:03.989Z,15
2017-10-03T08:47:13.003Z,5
2017-10-03T08:48:21.695Z,10
2017-10-03T08:49:31.032Z,15
2017-10-03T08:50:39.723Z,20
2017-10-03T08:51:48.741Z,20
2017-10-03T08:52:57.434Z,15
2017-10-03T08:54:07.091Z,10
2017-10-03T08:55:16.101Z,10
2017-10-03T08:56:25.115Z,30
2017-10-03T08:57:34.135Z,35
2017-10-03T08:58:43.145Z,75
2017-10-03T08:59:52.482Z,60
2017-10-03T09:01:01.498Z,40
2017-10-03T09:02:11.176Z,35
2017-10-03T09:03:20.187Z,60
2017-10-03T09:04:29.523Z,35
2017-10-03T09:05:38.858Z,25
2017-10-03T09:06:48.201Z,25
2017-10-03T09:07:57.544Z,30
2017-10-03T09:09:06.883Z,25
2017-10-03T09:10:16.217Z,20
2017-10-03T09:11:25.235Z,20
2017-10-03T09:12:33.929Z,25
2017-10-03T09:13:43.264Z,20
2017-10-03T09:14:51.959Z,15
2017-10-03T09:16:00.656Z,15
2017-10-03T09:17:09.986Z,15
2017-10-03T09:18:19.640Z,15
2017-10-03T09:19:28.337Z,25
2017-10-03T09:20:37.994Z,25
2017-10-03T09:21:47.336Z,20
2017-10-03T09:22:56.353Z,25
2017-10-03T09:24:05.371Z,20
2017-10-03T09:25:14.706Z,20
2017-10-03T09:26:24.045Z,20
2017-10-03T09:27:33.387Z,25
2017-10-03T09:28:42.402Z,20
2017-10-03T09:29:51.105Z,20
2017-10-03T09:31:00.123Z,25
2017-10-03T09:32:08.819Z,15
2017-10-03T09:33:18.159Z,10
2017-10-03T09:34:26.859Z,10
2017-10-03T09:35:36.199Z,10
2017-10-03T09:36:45.538Z,10
2017-10-03T09:37:54.238Z,10
2017-10-03T09:39:03.896Z,25
2017-10-03T09:40:12.920Z,40
2017-10-03T09:41:21.622Z,40
2017-10-03T09:42:30.960Z,35
2017-10-03T09:43:39.658Z,30
2017-10-03T09:44:48.681Z,20
2017-10-03T09:45:57.696Z,15
2017-10-03T09:47:06.408Z,10
2017-10-03T09:48:16.099Z,15
2017-10-03T09:49:25.113Z,15
2017-10-03T09:50:34.136Z,10
2017-10-03T09:51:43.469Z,15
2017-10-03T09:52:52.483Z,25
2017-10-03T09:54:01.811Z,85
2017-10-03T09:55:10.825Z,35
2017-10-03T09:56:20.158Z,25
2017-10-03T09:57:29.495Z,45
2017-10-03T09:58:38.825Z,65
2017-10-03T09:59:47.524Z,35
2017-10-03T10:00:56.538Z,75
2017-10-03T10:02:05.877Z,55
2017-10-03T10:03:14.889Z,60
2017-10-03T10:04:24.222Z,220
2017-10-03T10:05:33.554Z,180
2017-10-03T10:06:42.253Z,130
2017-10-03T10:07:51.261Z,40
2017-10-03T10:08:59.956Z,40
2017-10-03T10:10:09.299Z,300
2017-10-03T10:11:18.633Z,35
2017-10-03T10:12:28.290Z,35
2017-10-03T10:13:37.625Z,25
2017-10-03T10:14:47.624Z,25
2017-10-03T10:15:56.326Z,25
2017-10-03T10:17:05.342Z,20
2017-10-03T10:18:14.040Z,20
2017-10-03T10:19:23.381Z,20
2017-10-03T10:20:33.049Z,25
2017-10-03T10:21:41.746Z,30
2017-10-03T10:22:50.762Z,40
2017-10-03T10:23:59.780Z,35
2017-10-03T10:25:09.121Z,30
2017-10-03T10:26:18.451Z,35
2017-10-03T10:27:27.469Z,30
2017-10-03T10:28:37.123Z,15
2017-10-03T10:29:46.141Z,25
2017-10-03T10:30:55.161Z,15
2017-10-03T10:32:04.812Z,15
2017-10-03T10:33:14.157Z,10
2017-10-03T10:34:23.808Z,10
2017-10-03T10:35:32.821Z,5
2017-10-03T10:36:42.153Z,5
2017-10-03T10:37:50.852Z,10
2017-10-03T10:38:59.547Z,10
2017-10-03T10:40:08.562Z,5
2017-10-03T10:41:17.258Z,5
2017-10-03T10:42:26.271Z,15
2017-10-03T10:43:35.923Z,35
2017-10-03T10:44:44.936Z,35
2017-10-03T10:45:53.949Z,20
2017-10-03T10:47:03.287Z,15
2017-10-03T10:48:12.940Z,15
2017-10-03T10:49:21.964Z,10
2017-10-03T10:50:30.976Z,10
2017-10-03T10:51:39.668Z,10
2017-10-03T10:52:48.364Z,5
2017-10-03T10:53:57.058Z,10
2017-10-03T10:55:06.398Z,5
2017-10-03T10:56:15.092Z,5
2017-10-03T10:57:23.785Z,5
2017-10-03T10:58:32.801Z,15
2017-10-03T10:59:42.133Z,1200
2017-10-03T11:00:50.828Z,105
2017-10-03T11:02:00.163Z,1255
2017-10-03T11:03:09.174Z,1280
2017-10-03T11:04:18.200Z,1145
2017-10-03T11:05:26.894Z,1225
2017-10-03T11:06:36.233Z,1330
2017-10-03T11:07:45.893Z,1220
2017-10-03T11:08:55.225Z,205
2017-10-03T11:10:04.569Z,320
2017-10-03T11:11:14.229Z,480
2017-10-03T11:12:23.890Z,170
2017-10-03T11:13:32.589Z,705
2017-10-03T11:14:42.242Z,415
2017-10-03T11:15:51.257Z,195
2017-10-03T11:16:59.951Z,120
2017-10-03T11:18:09.606Z,40
2017-10-03T11:19:18.624Z,830
2017-10-03T11:20:27.965Z,95
2017-10-03T11:21:37.300Z,45
2017-10-03T11:22:46.637Z,35
2017-10-03T11:23:55.650Z,40
2017-10-03T11:25:04.666Z,35
2017-10-03T11:26:13.682Z,40
2017-10-03T11:27:23.022Z,40
2017-10-03T11:28:32.359Z,60
2017-10-03T11:29:41.698Z,1090
2017-10-03T11:30:51.351Z,1235
2017-10-03T11:32:00.368Z,1235
2017-10-03T11:33:09.706Z,1200
2017-10-03T11:34:19.040Z,1190
2017-10-03T11:35:28.054Z,1200
2017-10-03T11:36:37.388Z,1190
2017-10-03T11:37:46.723Z,1240
2017-10-03T11:38:55.750Z,1185
2017-10-03T11:40:04.766Z,1165
2017-10-03T11:41:14.105Z,1165
2017-10-03T11:42:22.805Z,995
2017-10-03T11:43:32.790Z,395
2017-10-03T11:44:42.135Z,205
2017-10-03T11:45:51.468Z,175
2017-10-03T11:47:01.447Z,145
2017-10-03T11:48:10.467Z,135
2017-10-03T11:49:19.481Z,145
2017-10-03T11:50:28.507Z,165
2017-10-03T11:51:38.483Z,140
2017-10-03T11:52:47.499Z,145
2017-10-03T11:53:56.523Z,50
2017-10-03T11:55:05.870Z,35
2017-10-03T11:56:15.210Z,35
2017-10-03T11:57:23.908Z,100
2017-10-03T11:58:32.925Z,50
2017-10-03T11:59:41.627Z,35
2017-10-03T12:00:50.645Z,45
2017-10-03T12:02:00.302Z,20
2017-10-03T12:03:09.322Z,20
2017-10-03T12:04:18.346Z,45
2017-10-03T12:05:27.366Z,20
2017-10-03T12:06:36.065Z,50
2017-10-03T12:07:45.081Z,75
2017-10-03T12:08:54.100Z,65
2017-10-03T12:10:02.794Z,80
2017-10-03T12:11:12.444Z,85
2017-10-03T12:12:22.101Z,75
2017-10-03T12:13:30.799Z,105
2017-10-03T12:14:39.498Z,95
2017-10-03T12:15:48.516Z,75
2017-10-03T12:16:57.859Z,90
2017-10-03T12:18:07.517Z,105
2017-10-03T12:19:16.854Z,90
2017-10-03T12:20:25.876Z,105
2017-10-03T12:21:34.892Z,65
2017-10-03T12:22:43.904Z,70
2017-10-03T12:23:53.240Z,90
2017-10-03T12:25:02.574Z,125
2017-10-03T12:26:11.918Z,125
2017-10-03T12:27:20.935Z,125
2017-10-03T12:28:30.267Z,145
2017-10-03T12:29:39.282Z,130
2017-10-03T12:30:47.979Z,120
2017-10-03T12:31:57.312Z,105
2017-10-03T12:33:06.009Z,85
2017-10-03T12:34:15.025Z,65
2017-10-03T12:35:24.048Z,50
2017-10-03T12:36:33.070Z,35
2017-10-03T12:37:41.764Z,50
2017-10-03T12:38:50.457Z,45
2017-10-03T12:39:59.472Z,55
2017-10-03T12:41:08.488Z,50
2017-10-03T12:42:17.502Z,25
2017-10-03T12:43:26.837Z,15
2017-10-03T12:44:35.538Z,15
2017-10-03T12:45:45.190Z,20
2017-10-03T12:46:54.529Z,20
2017-10-03T12:48:03.545Z,45
2017-10-03T12:49:12.559Z,85
2017-10-03T12:50:21.260Z,75
2017-10-03T12:51:30.599Z,70
2017-10-03T12:52:40.253Z,65
2017-10-03T12:53:48.949Z,55
2017-10-03T12:54:58.601Z,65
2017-10-03T12:56:07.942Z,60
2017-10-03T12:57:17.593Z,55
2017-10-03T12:58:26.293Z,50
2017-10-03T12:59:35.945Z,45
2017-10-03T13:00:44.965Z,45
2017-10-03T13:01:53.661Z,35
2017-10-03T13:03:02.681Z,20
2017-10-03T13:04:11.374Z,20
2017-10-03T13:05:20.394Z,30
2017-10-03T13:06:29.410Z,40
2017-10-03T13:07:38.426Z,45
2017-10-03T13:08:47.442Z,50
2017-10-03T13:09:56.140Z,55
2017-10-03T13:11:05.158Z,55
2017-10-03T13:12:14.490Z,60
2017-10-03T13:13:24.144Z,55
2017-10-03T13:14:32.843Z,45
2017-10-03T13:15:41.538Z,40
2017-10-03T13:16:50.236Z,35
2017-10-03T13:17:58.937Z,35
2017-10-03T13:19:08.277Z,25
2017-10-03T13:20:16.974Z,20
2017-10-03T13:21:26.312Z,20
2017-10-03T13:22:35.644Z,15
2017-10-03T13:23:45.620Z,15
2017-10-03T13:24:55.269Z,10
2017-10-03T13:26:04.613Z,10
2017-10-03T13:27:13.946Z,10
2017-10-03T13:28:22.973Z,10
2017-10-03T13:29:31.988Z,10
2017-10-03T13:30:40.687Z,10
2017-10-03T13:31:50.023Z,10
2017-10-03T13:32:59.039Z,10
2017-10-03T13:34:09.011Z,5
2017-10-03T13:35:17.707Z,5
2017-10-03T13:36:27.049Z,5
2017-10-03T13:37:35.749Z,0
2017-10-03T13:38:44.760Z,0
2017-10-03T13:39:53.775Z,0
2017-10-03T13:41:02.470Z,5
2017-10-03T13:42:12.139Z,5
2017-10-03T13:43:21.472Z,5
2017-10-03T13:44:31.127Z,5
2017-10-03T13:45:41.115Z,5
2017-10-03T13:46:50.449Z,5
2017-10-03T13:47:59.785Z,10
2017-10-03T13:49:09.121Z,10
2017-10-03T13:50:18.134Z,15
2017-10-03T13:51:27.466Z,20
2017-10-03T13:52:36.164Z,20
2017-10-03T13:53:45.497Z,20
2017-10-03T13:54:54.511Z,25
2017-10-03T13:56:03.542Z,30
2017-10-03T13:57:12.543Z,40
2017-10-03T13:58:21.880Z,40
2017-10-03T13:59:31.214Z,55
2017-10-03T14:00:40.226Z,50
2017-10-03T14:01:49.242Z,45
2017-10-03T14:02:58.577Z,45
2017-10-03T14:04:07.914Z,40
2017-10-03T14:05:17.247Z,40
2017-10-03T14:06:26.261Z,40
2017-10-03T14:07:34.953Z,30
2017-10-03T14:08:44.289Z,30
2017-10-03T14:09:53.629Z,35
2017-10-03T14:11:02.643Z,35
2017-10-03T14:12:11.986Z,30
2017-10-03T14:13:21.323Z,25
2017-10-03T14:14:30.019Z,20
2017-10-03T14:15:39.676Z,25
2017-10-03T14:16:48.691Z,25
2017-10-03T14:17:57.387Z,25
2017-10-03T14:19:06.420Z,20
2017-10-03T14:20:15.115Z,15
2017-10-03T14:21:24.448Z,15
2017-10-03T14:22:33.462Z,15
2017-10-03T14:23:42.803Z,10
2017-10-03T14:24:51.821Z,10
2017-10-03T14:26:01.161Z,10
2017-10-03T14:27:09.863Z,10
2017-10-03T14:28:19.194Z,10
2017-10-03T14:29:28.208Z,15
2017-10-03T14:30:37.223Z,15
2017-10-03T14:31:46.238Z,15
2017-10-03T14:32:55.256Z,15
2017-10-03T14:34:03.947Z,15
2017-10-03T14:35:13.919Z,10
2017-10-03T14:36:23.576Z,10
2017-10-03T14:37:32.590Z,10
2017-10-03T14:38:41.920Z,10
2017-10-03T14:39:51.253Z,10
2017-10-03T14:41:00.277Z,15
2017-10-03T14:42:09.985Z,30
2017-10-03T14:43:18.994Z,30
2017-10-03T14:44:28.007Z,25
2017-10-03T14:45:37.662Z,25
2017-10-03T14:46:47.317Z,20
2017-10-03T14:47:56.014Z,20
2017-10-03T14:49:04.717Z,20
2017-10-03T14:50:14.384Z,20
2017-10-03T14:51:23.083Z,20
2017-10-03T14:52:31.778Z,20
2017-10-03T14:53:41.456Z,20
2017-10-03T14:54:50.473Z,20
2017-10-03T14:55:59.484Z,20
2017-10-03T14:57:08.499Z,20
2017-10-03T14:58:17.195Z,15
2017-10-03T14:59:26.211Z,15
2017-10-03T15:00:35.235Z,15
2017-10-03T15:01:44.259Z,15
2017-10-03T15:02:53.277Z,15
2017-10-03T15:04:02.303Z,15
2017-10-03T15:05:12.285Z,15
2017-10-03T15:06:21.620Z,10
2017-10-03T15:07:30.637Z,15
2017-10-03T15:08:40.300Z,10
2017-10-03T15:09:49.310Z,10
2017-10-03T15:10:58.323Z,10
2017-10-03T15:12:07.345Z,10
2017-10-03T15:13:16.679Z,10
2017-10-03T15:14:26.333Z,15
2017-10-03T15:15:35.673Z,15
2017-10-03T15:16:45.010Z,15
2017-10-03T15:17:53.708Z,15
2017-10-03T15:19:02.728Z,20
2017-10-03T15:20:12.066Z,15
2017-10-03T15:21:20.767Z,15
2017-10-03T15:22:29.462Z,15
2017-10-03T15:23:38.481Z,15
2017-10-03T15:24:47.511Z,15
2017-10-03T15:25:56.842Z,15
2017-10-03T15:27:05.539Z,15
2017-10-03T15:28:14.229Z,15
2017-10-03T15:29:23.883Z,15
2017-10-03T15:30:32.896Z,20
2017-10-03T15:31:41.591Z,20
2017-10-03T15:32:50.610Z,25
2017-10-03T15:33:59.625Z,20
2017-10-03T15:35:08.637Z,15
2017-10-03T15:36:17.977Z,15
2017-10-03T15:37:27.314Z,15
2017-10-03T15:38:36.326Z,15
2017-10-03T15:39:45.344Z,10
2017-10-03T15:40:54.042Z,10
2017-10-03T15:42:03.694Z,10
2017-10-03T15:43:12.707Z,15
2017-10-03T15:44:21.724Z,10
2017-10-03T15:45:31.067Z,10
2017-10-03T15:46:40.077Z,10
2017-10-03T15:47:49.416Z,10
2017-10-03T15:48:58.432Z,10
2017-10-03T15:50:07.773Z,10
2017-10-03T15:51:17.105Z,10
2017-10-03T15:52:25.802Z,10
2017-10-03T15:53:34.826Z,10
2017-10-03T15:54:44.155Z,10
2017-10-03T15:55:53.168Z,10
2017-10-03T15:57:02.186Z,10
2017-10-03T15:58:11.522Z,10
2017-10-03T15:59:20.217Z,10
2017-10-03T16:00:29.549Z,10
2017-10-03T16:01:38.565Z,10
2017-10-03T16:02:47.577Z,5
2017-10-03T16:03:56.917Z,5
2017-10-03T16:05:05.935Z,5
2017-10-03T16:06:14.949Z,5
2017-10-03T16:07:23.963Z,5
2017-10-03T16:08:33.621Z,5
2017-10-03T16:09:42.645Z,5
2017-10-03T16:10:51.976Z,5
2017-10-03T16:12:00.996Z,5
2017-10-03T16:13:10.013Z,5
2017-10-03T16:14:19.028Z,5
2017-10-03T16:15:28.042Z,5
2017-10-03T16:16:36.740Z,5
2017-10-03T16:17:46.403Z,5
2017-10-03T16:18:56.059Z,5
2017-10-03T16:20:05.388Z,5
2017-10-03T16:21:14.406Z,5
2017-10-03T16:22:23.424Z,5
2017-10-03T16:23:32.757Z,5
2017-10-03T16:24:41.768Z,5
2017-10-03T16:25:50.780Z,5
2017-10-03T16:26:59.802Z,5
2017-10-03T16:28:08.819Z,5
2017-10-03T16:29:17.830Z,5
2017-10-03T16:30:26.845Z,0
2017-10-03T16:31:35.537Z,0
2017-10-03T16:32:44.233Z,0
2017-10-03T16:33:53.245Z,0
2017-10-03T16:35:01.936Z,0
2017-10-03T16:36:11.282Z,0
2017-10-03T16:37:19.977Z,0
2017-10-03T16:38:28.674Z,0
2017-10-03T16:39:37.375Z,0
2017-10-03T16:40:47.037Z,0